sensor_id;sensor_type;location;lat;lon;timestamp;P1;durP1;ratioP1;P2;durP2;ratioP2
75272;SDS011;63869;52.344;16.928;2022-12-16T00:00:22;72.85;;;25.33;;
75272;SDS011;63869;52.344;16.928;2022-12-16T00:02:48;73.07;;;26.17;;
75272;SDS011;63869;52.344;16.928;2022-12-16T00:05:14;85.40;;;26.80;;
75272;SDS011;63869;52.344;16.928;2022-12-16T00:07:40;83.38;;;27.60;;
75272;SDS011;63869;52.344;16.928;2022-12-16T00:10:06;89.43;;;30.15;;
75272;SDS011;63869;52.344;16.928;2022-12-16T00:12:32;95.93;;;29.27;;
75272;SDS011;63869;52.344;16.928;2022-12-16T00:14:57;87.55;;;29.80;;
75272;SDS011;63869;52.344;16.928;2022-12-16T00:17:22;81.10;;;26.48;;
75272;SDS011;63869;52.344;16.928;2022-12-16T00:19:48;83.25;;;28.95;;
75272;SDS011;63869;52.344;16.928;2022-12-16T00:22:13;68.32;;;26.42;;
75272;SDS011;63869;52.344;16.928;2022-12-16T00:24:38;81.40;;;26.70;;
75272;SDS011;63869;52.344;16.928;2022-12-16T00:27:04;85.95;;;28.23;;
75272;SDS011;63869;52.344;16.928;2022-12-16T00:29:29;76.82;;;27.13;;
75272;SDS011;63869;52.344;16.928;2022-12-16T00:31:54;86.55;;;27.33;;
75272;SDS011;63869;52.344;16.928;2022-12-16T00:34:19;70.85;;;26.08;;
75272;SDS011;63869;52.344;16.928;2022-12-16T00:36:45;73.15;;;25.08;;
75272;SDS011;63869;52.344;16.928;2022-12-16T00:39:10;72.10;;;26.73;;
75272;SDS011;63869;52.344;16.928;2022-12-16T00:41:35;71.60;;;25.23;;
75272;SDS011;63869;52.344;16.928;2022-12-16T00:44:01;69.13;;;25.60;;
75272;SDS011;63869;52.344;16.928;2022-12-16T00:46:27;75.50;;;24.60;;
75272;SDS011;63869;52.344;16.928;2022-12-16T00:48:52;78.05;;;27.33;;
75272;SDS011;63869;52.344;16.928;2022-12-16T00:51:18;74.72;;;26.35;;
75272;SDS011;63869;52.344;16.928;2022-12-16T00:53:43;79.47;;;26.45;;
75272;SDS011;63869;52.344;16.928;2022-12-16T00:56:10;75.03;;;26.50;;
75272;SDS011;63869;52.344;16.928;2022-12-16T00:58:38;83.68;;;26.55;;
75272;SDS011;63869;52.344;16.928;2022-12-16T01:01:04;80.10;;;26.85;;
75272;SDS011;63869;52.344;16.928;2022-12-16T01:03:29;76.40;;;28.10;;
75272;SDS011;63869;52.344;16.928;2022-12-16T01:05:54;84.38;;;26.90;;
75272;SDS011;63869;52.344;16.928;2022-12-16T01:08:20;77.70;;;26.42;;
75272;SDS011;63869;52.344;16.928;2022-12-16T01:10:53;76.45;;;27.05;;
75272;SDS011;63869;52.344;16.928;2022-12-16T01:13:19;90.68;;;29.23;;
75272;SDS011;63869;52.344;16.928;2022-12-16T01:15:45;86.63;;;27.88;;
75272;SDS011;63869;52.344;16.928;2022-12-16T01:18:11;85.45;;;28.63;;
75272;SDS011;63869;52.344;16.928;2022-12-16T01:20:36;82.85;;;28.08;;
75272;SDS011;63869;52.344;16.928;2022-12-16T01:23:02;84.47;;;29.88;;
75272;SDS011;63869;52.344;16.928;2022-12-16T01:25:28;81.97;;;28.95;;
75272;SDS011;63869;52.344;16.928;2022-12-16T01:27:53;80.00;;;28.65;;
75272;SDS011;63869;52.344;16.928;2022-12-16T01:30:19;86.57;;;28.60;;
75272;SDS011;63869;52.344;16.928;2022-12-16T01:32:44;94.35;;;30.20;;
75272;SDS011;63869;52.344;16.928;2022-12-16T01:35:09;90.38;;;29.77;;
75272;SDS011;63869;52.344;16.928;2022-12-16T01:37:35;92.68;;;29.20;;
75272;SDS011;63869;52.344;16.928;2022-12-16T01:40:01;88.78;;;29.65;;
75272;SDS011;63869;52.344;16.928;2022-12-16T01:42:27;91.80;;;29.17;;
75272;SDS011;63869;52.344;16.928;2022-12-16T01:44:55;91.65;;;30.15;;
75272;SDS011;63869;52.344;16.928;2022-12-16T01:47:27;86.95;;;30.95;;
75272;SDS011;63869;52.344;16.928;2022-12-16T01:50:03;91.28;;;31.50;;
75272;SDS011;63869;52.344;16.928;2022-12-16T01:52:36;97.10;;;30.02;;
75272;SDS011;63869;52.344;16.928;2022-12-16T01:55:08;105.80;;;32.78;;
75272;SDS011;63869;52.344;16.928;2022-12-16T01:58:00;99.03;;;31.55;;
75272;SDS011;63869;52.344;16.928;2022-12-16T02:00:31;93.20;;;31.42;;
75272;SDS011;63869;52.344;16.928;2022-12-16T02:02:57;98.80;;;29.42;;
75272;SDS011;63869;52.344;16.928;2022-12-16T02:05:22;87.63;;;30.08;;
75272;SDS011;63869;52.344;16.928;2022-12-16T02:13:16;85.88;;;29.45;;
75272;SDS011;63869;52.344;16.928;2022-12-16T02:15:49;82.45;;;28.05;;
75272;SDS011;63869;52.344;16.928;2022-12-16T02:24:03;91.45;;;29.13;;
75272;SDS011;63869;52.344;16.928;2022-12-16T02:26:52;79.47;;;28.83;;
75272;SDS011;63869;52.344;16.928;2022-12-16T02:32:18;81.18;;;27.00;;
75272;SDS011;63869;52.344;16.928;2022-12-16T02:34:58;85.15;;;28.70;;
75272;SDS011;63869;52.344;16.928;2022-12-16T02:40:13;82.78;;;29.23;;
75272;SDS011;63869;52.344;16.928;2022-12-16T02:42:48;89.03;;;28.73;;
75272;SDS011;63869;52.344;16.928;2022-12-16T02:45:19;86.25;;;28.58;;
75272;SDS011;63869;52.344;16.928;2022-12-16T02:47:49;84.40;;;27.67;;
75272;SDS011;63869;52.344;16.928;2022-12-16T02:50:22;86.15;;;30.02;;
75272;SDS011;63869;52.344;16.928;2022-12-16T02:52:52;80.57;;;27.42;;
75272;SDS011;63869;52.344;16.928;2022-12-16T02:55:19;90.65;;;28.65;;
75272;SDS011;63869;52.344;16.928;2022-12-16T03:00:23;86.65;;;29.67;;
75272;SDS011;63869;52.344;16.928;2022-12-16T03:02:58;78.35;;;28.40;;
75272;SDS011;63869;52.344;16.928;2022-12-16T03:08:01;73.60;;;27.58;;
75272;SDS011;63869;52.344;16.928;2022-12-16T03:10:30;82.32;;;27.65;;
75272;SDS011;63869;52.344;16.928;2022-12-16T03:13:00;73.00;;;26.77;;
75272;SDS011;63869;52.344;16.928;2022-12-16T03:15:29;86.45;;;26.92;;
75272;SDS011;63869;52.344;16.928;2022-12-16T03:17:58;81.63;;;27.55;;
75272;SDS011;63869;52.344;16.928;2022-12-16T03:20:26;76.85;;;26.70;;
75272;SDS011;63869;52.344;16.928;2022-12-16T03:22:58;71.68;;;27.27;;
75272;SDS011;63869;52.344;16.928;2022-12-16T03:25:27;77.65;;;25.85;;
75272;SDS011;63869;52.344;16.928;2022-12-16T03:28:14;73.95;;;25.85;;
75272;SDS011;63869;52.344;16.928;2022-12-16T03:30:48;71.97;;;25.30;;
75272;SDS011;63869;52.344;16.928;2022-12-16T03:35:59;72.85;;;25.33;;
75272;SDS011;63869;52.344;16.928;2022-12-16T03:38:30;79.53;;;25.50;;
75272;SDS011;63869;52.344;16.928;2022-12-16T03:40:57;72.60;;;26.52;;
75272;SDS011;63869;52.344;16.928;2022-12-16T03:43:23;69.20;;;24.08;;
75272;SDS011;63869;52.344;16.928;2022-12-16T03:45:50;76.32;;;25.25;;
75272;SDS011;63869;52.344;16.928;2022-12-16T03:48:21;80.05;;;25.35;;
75272;SDS011;63869;52.344;16.928;2022-12-16T03:50:47;67.20;;;24.77;;
75272;SDS011;63869;52.344;16.928;2022-12-16T03:53:12;87.10;;;27.42;;
75272;SDS011;63869;52.344;16.928;2022-12-16T03:55:38;66.30;;;24.85;;
75272;SDS011;63869;52.344;16.928;2022-12-16T03:58:03;68.07;;;24.30;;
75272;SDS011;63869;52.344;16.928;2022-12-16T04:00:29;72.07;;;24.90;;
75272;SDS011;63869;52.344;16.928;2022-12-16T04:02:54;65.00;;;25.70;;
75272;SDS011;63869;52.344;16.928;2022-12-16T04:05:19;78.15;;;26.77;;
75272;SDS011;63869;52.344;16.928;2022-12-16T04:07:45;79.72;;;25.17;;
75272;SDS011;63869;52.344;16.928;2022-12-16T04:10:10;70.80;;;24.75;;
75272;SDS011;63869;52.344;16.928;2022-12-16T04:12:36;67.50;;;25.63;;
75272;SDS011;63869;52.344;16.928;2022-12-16T04:20:50;50.95;;;20.90;;
75272;SDS011;63869;52.344;16.928;2022-12-16T04:23:36;73.88;;;24.20;;
75272;SDS011;63869;52.344;16.928;2022-12-16T04:26:26;61.85;;;24.00;;
75272;SDS011;63869;52.344;16.928;2022-12-16T04:28:51;80.47;;;26.08;;
75272;SDS011;63869;52.344;16.928;2022-12-16T04:31:17;77.13;;;26.17;;
75272;SDS011;63869;52.344;16.928;2022-12-16T04:33:42;82.90;;;27.45;;
75272;SDS011;63869;52.344;16.928;2022-12-16T04:39:10;82.35;;;26.83;;
75272;SDS011;63869;52.344;16.928;2022-12-16T04:41:58;68.20;;;25.27;;
75272;SDS011;63869;52.344;16.928;2022-12-16T04:44:42;69.68;;;25.70;;
75272;SDS011;63869;52.344;16.928;2022-12-16T04:47:26;84.75;;;27.52;;
75272;SDS011;63869;52.344;16.928;2022-12-16T04:52:54;67.40;;;24.38;;
75272;SDS011;63869;52.344;16.928;2022-12-16T04:55:38;63.88;;;22.83;;
75272;SDS011;63869;52.344;16.928;2022-12-16T04:58:22;74.03;;;25.38;;
75272;SDS011;63869;52.344;16.928;2022-12-16T05:01:06;77.38;;;26.55;;
75272;SDS011;63869;52.344;16.928;2022-12-16T05:03:50;72.10;;;26.25;;
75272;SDS011;63869;52.344;16.928;2022-12-16T05:09:17;77.10;;;24.10;;
75272;SDS011;63869;52.344;16.928;2022-12-16T05:14:45;62.90;;;22.13;;
75272;SDS011;63869;52.344;16.928;2022-12-16T05:17:29;80.65;;;25.27;;
75272;SDS011;63869;52.344;16.928;2022-12-16T05:20:13;66.95;;;23.88;;
75272;SDS011;63869;52.344;16.928;2022-12-16T05:22:58;73.50;;;26.88;;
75272;SDS011;63869;52.344;16.928;2022-12-16T05:25:42;72.65;;;24.83;;
75272;SDS011;63869;52.344;16.928;2022-12-16T05:28:26;76.75;;;25.83;;
75272;SDS011;63869;52.344;16.928;2022-12-16T05:31:09;71.30;;;23.95;;
75272;SDS011;63869;52.344;16.928;2022-12-16T05:33:53;82.68;;;26.77;;
75272;SDS011;63869;52.344;16.928;2022-12-16T05:36:37;66.57;;;24.65;;
75272;SDS011;63869;52.344;16.928;2022-12-16T05:42:05;65.97;;;23.10;;
75272;SDS011;63869;52.344;16.928;2022-12-16T05:44:49;67.03;;;24.63;;
75272;SDS011;63869;52.344;16.928;2022-12-16T05:50:17;71.50;;;23.85;;
75272;SDS011;63869;52.344;16.928;2022-12-16T05:55:45;69.88;;;24.20;;
75272;SDS011;63869;52.344;16.928;2022-12-16T06:01:13;78.28;;;25.98;;
75272;SDS011;63869;52.344;16.928;2022-12-16T06:03:57;76.20;;;26.33;;
75272;SDS011;63869;52.344;16.928;2022-12-16T06:06:41;79.28;;;27.67;;
75272;SDS011;63869;52.344;16.928;2022-12-16T06:12:09;62.05;;;23.20;;
75272;SDS011;63869;52.344;16.928;2022-12-16T06:17:40;62.83;;;22.52;;
75272;SDS011;63869;52.344;16.928;2022-12-16T06:20:25;68.75;;;24.60;;
75272;SDS011;63869;52.344;16.928;2022-12-16T06:23:08;78.00;;;25.23;;
75272;SDS011;63869;52.344;16.928;2022-12-16T06:25:52;65.63;;;22.77;;
75272;SDS011;63869;52.344;16.928;2022-12-16T06:28:36;60.42;;;23.95;;
75272;SDS011;63869;52.344;16.928;2022-12-16T06:31:20;74.65;;;24.85;;
75272;SDS011;63869;52.344;16.928;2022-12-16T06:34:04;68.90;;;24.35;;
75272;SDS011;63869;52.344;16.928;2022-12-16T06:36:48;68.60;;;24.65;;
75272;SDS011;63869;52.344;16.928;2022-12-16T06:39:32;72.88;;;24.70;;
75272;SDS011;63869;52.344;16.928;2022-12-16T06:42:16;67.18;;;24.55;;
75272;SDS011;63869;52.344;16.928;2022-12-16T06:45:00;72.78;;;24.33;;
75272;SDS011;63869;52.344;16.928;2022-12-16T06:47:44;71.10;;;25.20;;
75272;SDS011;63869;52.344;16.928;2022-12-16T06:53:12;63.90;;;23.65;;
75272;SDS011;63869;52.344;16.928;2022-12-16T06:55:56;70.65;;;24.85;;
75272;SDS011;63869;52.344;16.928;2022-12-16T06:58:40;86.15;;;25.08;;
75272;SDS011;63869;52.344;16.928;2022-12-16T07:01:24;73.82;;;25.08;;
75272;SDS011;63869;52.344;16.928;2022-12-16T07:04:08;73.07;;;25.88;;
75272;SDS011;63869;52.344;16.928;2022-12-16T07:09:36;61.05;;;23.55;;
75272;SDS011;63869;52.344;16.928;2022-12-16T07:12:20;60.30;;;23.90;;
75272;SDS011;63869;52.344;16.928;2022-12-16T07:15:04;60.38;;;22.38;;
75272;SDS011;63869;52.344;16.928;2022-12-16T07:17:48;86.50;;;25.38;;
75272;SDS011;63869;52.344;16.928;2022-12-16T07:20:32;56.60;;;21.58;;
75272;SDS011;63869;52.344;16.928;2022-12-16T07:23:16;63.17;;;23.17;;
75272;SDS011;63869;52.344;16.928;2022-12-16T07:26:00;56.55;;;22.17;;
75272;SDS011;63869;52.344;16.928;2022-12-16T07:28:44;57.63;;;22.75;;
75272;SDS011;63869;52.344;16.928;2022-12-16T07:31:28;58.95;;;22.15;;
75272;SDS011;63869;52.344;16.928;2022-12-16T07:34:12;61.35;;;22.45;;
75272;SDS011;63869;52.344;16.928;2022-12-16T07:36:56;65.68;;;20.80;;
75272;SDS011;63869;52.344;16.928;2022-12-16T07:39:40;66.07;;;22.45;;
75272;SDS011;63869;52.344;16.928;2022-12-16T07:42:24;69.93;;;22.40;;
75272;SDS011;63869;52.344;16.928;2022-12-16T07:45:08;65.53;;;22.75;;
75272;SDS011;63869;52.344;16.928;2022-12-16T07:47:52;56.22;;;21.90;;
75272;SDS011;63869;52.344;16.928;2022-12-16T07:50:36;59.70;;;23.33;;
75272;SDS011;63869;52.344;16.928;2022-12-16T07:53:21;60.67;;;22.48;;
75272;SDS011;63869;52.344;16.928;2022-12-16T07:56:06;63.50;;;23.58;;
75272;SDS011;63869;52.344;16.928;2022-12-16T07:58:50;58.08;;;22.40;;
75272;SDS011;63869;52.344;16.928;2022-12-16T08:01:34;61.10;;;22.17;;
75272;SDS011;63869;52.344;16.928;2022-12-16T08:04:18;67.22;;;22.95;;
75272;SDS011;63869;52.344;16.928;2022-12-16T08:07:02;60.88;;;23.25;;
75272;SDS011;63869;52.344;16.928;2022-12-16T08:09:46;68.60;;;23.73;;
75272;SDS011;63869;52.344;16.928;2022-12-16T08:12:30;67.82;;;23.90;;
75272;SDS011;63869;52.344;16.928;2022-12-16T08:15:14;61.33;;;24.80;;
75272;SDS011;63869;52.344;16.928;2022-12-16T08:17:58;74.40;;;24.38;;
75272;SDS011;63869;52.344;16.928;2022-12-16T08:20:42;69.20;;;23.67;;
75272;SDS011;63869;52.344;16.928;2022-12-16T08:23:26;68.28;;;23.55;;
75272;SDS011;63869;52.344;16.928;2022-12-16T08:26:10;63.17;;;24.10;;
75272;SDS011;63869;52.344;16.928;2022-12-16T08:28:54;65.50;;;23.73;;
75272;SDS011;63869;52.344;16.928;2022-12-16T08:31:38;64.15;;;22.45;;
75272;SDS011;63869;52.344;16.928;2022-12-16T08:34:22;65.38;;;23.50;;
75272;SDS011;63869;52.344;16.928;2022-12-16T08:39:50;60.58;;;22.33;;
75272;SDS011;63869;52.344;16.928;2022-12-16T08:42:34;61.00;;;21.13;;
75272;SDS011;63869;52.344;16.928;2022-12-16T08:45:19;65.57;;;23.30;;
75272;SDS011;63869;52.344;16.928;2022-12-16T08:48:03;64.63;;;23.13;;
75272;SDS011;63869;52.344;16.928;2022-12-16T08:50:47;65.43;;;24.70;;
75272;SDS011;63869;52.344;16.928;2022-12-16T08:53:31;72.07;;;24.88;;
75272;SDS011;63869;52.344;16.928;2022-12-16T08:56:15;71.60;;;25.98;;
75272;SDS011;63869;52.344;16.928;2022-12-16T08:58:59;63.30;;;24.20;;
75272;SDS011;63869;52.344;16.928;2022-12-16T09:01:43;63.58;;;24.42;;
75272;SDS011;63869;52.344;16.928;2022-12-16T09:04:27;71.57;;;24.02;;
75272;SDS011;63869;52.344;16.928;2022-12-16T09:09:55;74.90;;;22.45;;
75272;SDS011;63869;52.344;16.928;2022-12-16T09:12:39;62.15;;;23.08;;
75272;SDS011;63869;52.344;16.928;2022-12-16T09:15:23;58.15;;;22.83;;
75272;SDS011;63869;52.344;16.928;2022-12-16T09:20:51;60.22;;;22.02;;
75272;SDS011;63869;52.344;16.928;2022-12-16T09:23:35;60.85;;;22.65;;
75272;SDS011;63869;52.344;16.928;2022-12-16T09:26:19;63.53;;;23.75;;
75272;SDS011;63869;52.344;16.928;2022-12-16T09:31:46;56.58;;;21.67;;
75272;SDS011;63869;52.344;16.928;2022-12-16T09:34:31;68.72;;;22.20;;
75272;SDS011;63869;52.344;16.928;2022-12-16T09:39:58;59.78;;;20.85;;
75272;SDS011;63869;52.344;16.928;2022-12-16T09:46:02;52.65;;;20.75;;
75272;SDS011;63869;52.344;16.928;2022-12-16T09:51:55;73.40;;;24.60;;
75272;SDS011;63869;52.344;16.928;2022-12-16T09:54:42;61.67;;;22.90;;
75272;SDS011;63869;52.344;16.928;2022-12-16T09:57:28;65.78;;;22.20;;
75272;SDS011;63869;52.344;16.928;2022-12-16T10:00:22;61.53;;;23.60;;
75272;SDS011;63869;52.344;16.928;2022-12-16T10:03:14;67.63;;;23.25;;
75272;SDS011;63869;52.344;16.928;2022-12-16T10:06:06;57.70;;;22.75;;
75272;SDS011;63869;52.344;16.928;2022-12-16T10:09:22;69.40;;;23.33;;
75272;SDS011;63869;52.344;16.928;2022-12-16T10:21:22;74.37;;;26.10;;
75272;SDS011;63869;52.344;16.928;2022-12-16T10:27:23;72.28;;;25.08;;
75272;SDS011;63869;52.344;16.928;2022-12-16T10:30:17;72.35;;;25.52;;
75272;SDS011;63869;52.344;16.928;2022-12-16T10:33:01;64.22;;;25.45;;
75272;SDS011;63869;52.344;16.928;2022-12-16T10:38:40;72.53;;;27.08;;
75272;SDS011;63869;52.344;16.928;2022-12-16T10:41:31;77.70;;;27.33;;
75272;SDS011;63869;52.344;16.928;2022-12-16T10:44:22;75.15;;;28.05;;
75272;SDS011;63869;52.344;16.928;2022-12-16T10:47:09;83.88;;;27.98;;
75272;SDS011;63869;52.344;16.928;2022-12-16T10:49:57;86.32;;;28.45;;
75272;SDS011;63869;52.344;16.928;2022-12-16T10:52:53;82.00;;;27.27;;
75272;SDS011;63869;52.344;16.928;2022-12-16T10:58:38;89.40;;;29.40;;
75272;SDS011;63869;52.344;16.928;2022-12-16T11:01:29;81.15;;;28.25;;
75272;SDS011;63869;52.344;16.928;2022-12-16T11:07:24;74.32;;;28.48;;
75272;SDS011;63869;52.344;16.928;2022-12-16T11:10:27;80.85;;;28.25;;
75272;SDS011;63869;52.344;16.928;2022-12-16T11:13:26;72.35;;;27.17;;
75272;SDS011;63869;52.344;16.928;2022-12-16T11:16:21;77.75;;;27.65;;
75272;SDS011;63869;52.344;16.928;2022-12-16T11:19:20;85.60;;;28.35;;
75272;SDS011;63869;52.344;16.928;2022-12-16T11:22:06;87.22;;;29.73;;
75272;SDS011;63869;52.344;16.928;2022-12-16T11:28:04;83.40;;;28.50;;
75272;SDS011;63869;52.344;16.928;2022-12-16T11:30:58;90.03;;;30.58;;
75272;SDS011;63869;52.344;16.928;2022-12-16T11:33:47;86.25;;;29.13;;
75272;SDS011;63869;52.344;16.928;2022-12-16T11:36:32;90.32;;;30.35;;
75272;SDS011;63869;52.344;16.928;2022-12-16T11:39:19;86.00;;;31.30;;
75272;SDS011;63869;52.344;16.928;2022-12-16T11:42:05;81.28;;;29.48;;
75272;SDS011;63869;52.344;16.928;2022-12-16T11:44:55;105.75;;;31.73;;
75272;SDS011;63869;52.344;16.928;2022-12-16T11:47:44;79.80;;;28.65;;
75272;SDS011;63869;52.344;16.928;2022-12-16T11:50:33;87.57;;;29.00;;
75272;SDS011;63869;52.344;16.928;2022-12-16T11:56:20;94.38;;;31.05;;
75272;SDS011;63869;52.344;16.928;2022-12-16T11:59:14;99.97;;;29.83;;
75272;SDS011;63869;52.344;16.928;2022-12-16T12:05:40;90.97;;;30.10;;
75272;SDS011;63869;52.344;16.928;2022-12-16T12:08:37;73.80;;;28.08;;
75272;SDS011;63869;52.344;16.928;2022-12-16T12:11:30;85.75;;;30.13;;
75272;SDS011;63869;52.344;16.928;2022-12-16T12:20:49;74.88;;;27.20;;
75272;SDS011;63869;52.344;16.928;2022-12-16T12:27:03;72.03;;;25.88;;
75272;SDS011;63869;52.344;16.928;2022-12-16T12:30:05;71.00;;;28.42;;
75272;SDS011;63869;52.344;16.928;2022-12-16T12:33:19;77.95;;;27.10;;
75272;SDS011;63869;52.344;16.928;2022-12-16T12:36:14;75.15;;;28.90;;
75272;SDS011;63869;52.344;16.928;2022-12-16T12:47:28;68.55;;;25.55;;
75272;SDS011;63869;52.344;16.928;2022-12-16T12:50:59;60.22;;;24.40;;
75272;SDS011;63869;52.344;16.928;2022-12-16T12:53:37;77.30;;;26.33;;
75272;SDS011;63869;52.344;16.928;2022-12-16T12:56:46;78.40;;;27.73;;
75272;SDS011;63869;52.344;16.928;2022-12-16T12:59:37;78.13;;;27.88;;
75272;SDS011;63869;52.344;16.928;2022-12-16T13:02:30;76.45;;;27.75;;
75272;SDS011;63869;52.344;16.928;2022-12-16T13:05:26;77.50;;;27.65;;
75272;SDS011;63869;52.344;16.928;2022-12-16T13:11:33;90.85;;;28.67;;
75272;SDS011;63869;52.344;16.928;2022-12-16T13:17:21;114.97;;;38.95;;
75272;SDS011;63869;52.344;16.928;2022-12-16T13:23:28;100.90;;;38.30;;
75272;SDS011;63869;52.344;16.928;2022-12-16T13:26:14;137.98;;;46.50;;
75272;SDS011;63869;52.344;16.928;2022-12-16T13:32:02;124.93;;;43.17;;
75272;SDS011;63869;52.344;16.928;2022-12-16T13:40:49;84.95;;;31.08;;
75272;SDS011;63869;52.344;16.928;2022-12-16T13:43:54;89.57;;;31.83;;
75272;SDS011;63869;52.344;16.928;2022-12-16T13:49:44;78.13;;;28.75;;
75272;SDS011;63869;52.344;16.928;2022-12-16T13:55:41;76.65;;;29.67;;
75272;SDS011;63869;52.344;16.928;2022-12-16T13:58:42;84.22;;;30.30;;
75272;SDS011;63869;52.344;16.928;2022-12-16T14:04:33;83.60;;;29.30;;
75272;SDS011;63869;52.344;16.928;2022-12-16T14:07:20;87.20;;;28.95;;
75272;SDS011;63869;52.344;16.928;2022-12-16T14:10:21;75.80;;;28.80;;
75272;SDS011;63869;52.344;16.928;2022-12-16T14:17:09;76.88;;;26.65;;
75272;SDS011;63869;52.344;16.928;2022-12-16T14:20:09;79.60;;;28.13;;
75272;SDS011;63869;52.344;16.928;2022-12-16T14:25:55;80.75;;;27.25;;
75272;SDS011;63869;52.344;16.928;2022-12-16T14:28:40;78.47;;;25.98;;
75272;SDS011;63869;52.344;16.928;2022-12-16T14:34:18;78.27;;;26.97;;
75272;SDS011;63869;52.344;16.928;2022-12-16T14:37:14;70.55;;;25.88;;
75272;SDS011;63869;52.344;16.928;2022-12-16T14:39:59;85.45;;;27.67;;
75272;SDS011;63869;52.344;16.928;2022-12-16T14:42:43;87.82;;;28.35;;
75272;SDS011;63869;52.344;16.928;2022-12-16T14:45:30;70.53;;;25.15;;
75272;SDS011;63869;52.344;16.928;2022-12-16T14:54:38;71.28;;;26.98;;
75272;SDS011;63869;52.344;16.928;2022-12-16T14:57:27;72.38;;;26.77;;
75272;SDS011;63869;52.344;16.928;2022-12-16T15:03:18;78.03;;;26.95;;
75272;SDS011;63869;52.344;16.928;2022-12-16T15:06:17;87.95;;;26.58;;
75272;SDS011;63869;52.344;16.928;2022-12-16T15:09:31;74.65;;;25.48;;
75272;SDS011;63869;52.344;16.928;2022-12-16T15:12:18;77.25;;;25.30;;
75272;SDS011;63869;52.344;16.928;2022-12-16T15:15:07;76.70;;;24.90;;
75272;SDS011;63869;52.344;16.928;2022-12-16T15:17:56;75.30;;;26.35;;
75272;SDS011;63869;52.344;16.928;2022-12-16T15:20:47;69.28;;;25.88;;
75272;SDS011;63869;52.344;16.928;2022-12-16T15:23:37;75.75;;;26.73;;
75272;SDS011;63869;52.344;16.928;2022-12-16T15:26:24;74.05;;;27.67;;
75272;SDS011;63869;52.344;16.928;2022-12-16T15:29:26;85.47;;;28.58;;
75272;SDS011;63869;52.344;16.928;2022-12-16T15:41:34;72.78;;;27.00;;
75272;SDS011;63869;52.344;16.928;2022-12-16T15:47:16;80.53;;;29.65;;
75272;SDS011;63869;52.344;16.928;2022-12-16T15:50:03;76.07;;;27.33;;
75272;SDS011;63869;52.344;16.928;2022-12-16T15:52:47;78.70;;;27.35;;
75272;SDS011;63869;52.344;16.928;2022-12-16T15:55:33;91.18;;;30.48;;
75272;SDS011;63869;52.344;16.928;2022-12-16T16:01:10;74.00;;;29.70;;
75272;SDS011;63869;52.344;16.928;2022-12-16T16:03:56;78.50;;;29.90;;
75272;SDS011;63869;52.344;16.928;2022-12-16T16:06:45;89.25;;;30.75;;
75272;SDS011;63869;52.344;16.928;2022-12-16T16:09:32;74.53;;;29.67;;
75272;SDS011;63869;52.344;16.928;2022-12-16T16:12:17;95.30;;;33.40;;
75272;SDS011;63869;52.344;16.928;2022-12-16T16:15:02;95.05;;;35.25;;
75272;SDS011;63869;52.344;16.928;2022-12-16T16:17:47;97.55;;;33.83;;
75272;SDS011;63869;52.344;16.928;2022-12-16T16:20:37;98.85;;;35.60;;
75272;SDS011;63869;52.344;16.928;2022-12-16T16:26:04;84.95;;;28.58;;
75272;SDS011;63869;52.344;16.928;2022-12-16T16:31:32;96.07;;;35.42;;
75272;SDS011;63869;52.344;16.928;2022-12-16T16:37:00;74.43;;;28.88;;
75272;SDS011;63869;52.344;16.928;2022-12-16T16:42:28;101.50;;;34.05;;
75272;SDS011;63869;52.344;16.928;2022-12-16T16:45:12;86.05;;;30.42;;
75272;SDS011;63869;52.344;16.928;2022-12-16T16:48:12;94.25;;;31.60;;
75272;SDS011;63869;52.344;16.928;2022-12-16T16:50:59;92.90;;;31.33;;
75272;SDS011;63869;52.344;16.928;2022-12-16T16:53:43;89.05;;;31.88;;
75272;SDS011;63869;52.344;16.928;2022-12-16T16:56:28;91.05;;;32.50;;
75272;SDS011;63869;52.344;16.928;2022-12-16T16:59:17;92.72;;;31.45;;
75272;SDS011;63869;52.344;16.928;2022-12-16T17:02:07;89.15;;;31.52;;
75272;SDS011;63869;52.344;16.928;2022-12-16T17:04:58;86.55;;;30.77;;
75272;SDS011;63869;52.344;16.928;2022-12-16T17:07:42;85.75;;;29.70;;
75272;SDS011;63869;52.344;16.928;2022-12-16T17:10:26;88.65;;;29.08;;
75272;SDS011;63869;52.344;16.928;2022-12-16T17:13:10;93.40;;;30.48;;
75272;SDS011;63869;52.344;16.928;2022-12-16T17:18:38;92.57;;;30.77;;
75272;SDS011;63869;52.344;16.928;2022-12-16T17:24:06;75.50;;;28.17;;
75272;SDS011;63869;52.344;16.928;2022-12-16T17:26:50;66.35;;;25.25;;
75272;SDS011;63869;52.344;16.928;2022-12-16T17:29:33;78.93;;;28.08;;
75272;SDS011;63869;52.344;16.928;2022-12-16T17:32:17;76.38;;;26.77;;
75272;SDS011;63869;52.344;16.928;2022-12-16T17:35:01;83.75;;;28.17;;
75272;SDS011;63869;52.344;16.928;2022-12-16T17:40:29;70.97;;;24.73;;
75272;SDS011;63869;52.344;16.928;2022-12-16T17:45:58;73.80;;;24.15;;
75272;SDS011;63869;52.344;16.928;2022-12-16T17:48:44;76.32;;;25.40;;
75272;SDS011;63869;52.344;16.928;2022-12-16T17:51:28;80.57;;;26.45;;
75272;SDS011;63869;52.344;16.928;2022-12-16T17:56:56;72.82;;;25.45;;
75272;SDS011;63869;52.344;16.928;2022-12-16T18:02:24;75.53;;;25.35;;
75272;SDS011;63869;52.344;16.928;2022-12-16T18:07:52;79.85;;;25.73;;
75272;SDS011;63869;52.344;16.928;2022-12-16T18:10:36;74.78;;;26.27;;
75272;SDS011;63869;52.344;16.928;2022-12-16T18:13:20;75.80;;;27.10;;
75272;SDS011;63869;52.344;16.928;2022-12-16T18:16:04;83.50;;;28.65;;
75272;SDS011;63869;52.344;16.928;2022-12-16T18:18:48;86.95;;;29.70;;
75272;SDS011;63869;52.344;16.928;2022-12-16T18:21:32;78.85;;;28.02;;
75272;SDS011;63869;52.344;16.928;2022-12-16T18:24:16;79.00;;;29.00;;
75272;SDS011;63869;52.344;16.928;2022-12-16T18:27:00;77.35;;;28.50;;
75272;SDS011;63869;52.344;16.928;2022-12-16T18:30:01;81.45;;;28.27;;
75272;SDS011;63869;52.344;16.928;2022-12-16T18:32:47;80.65;;;28.45;;
75272;SDS011;63869;52.344;16.928;2022-12-16T18:38:15;69.20;;;26.73;;
75272;SDS011;63869;52.344;16.928;2022-12-16T18:41:00;80.43;;;28.85;;
75272;SDS011;63869;52.344;16.928;2022-12-16T18:43:48;82.93;;;28.00;;
75272;SDS011;63869;52.344;16.928;2022-12-16T18:46:32;78.63;;;28.25;;
75272;SDS011;63869;52.344;16.928;2022-12-16T18:49:16;85.18;;;27.42;;
75272;SDS011;63869;52.344;16.928;2022-12-16T18:54:43;75.35;;;26.92;;
75272;SDS011;63869;52.344;16.928;2022-12-16T19:00:11;75.85;;;26.02;;
75272;SDS011;63869;52.344;16.928;2022-12-16T19:05:39;71.18;;;25.67;;
75272;SDS011;63869;52.344;16.928;2022-12-16T19:11:07;73.40;;;26.58;;
75272;SDS011;63869;52.344;16.928;2022-12-16T19:13:51;85.30;;;27.85;;
75272;SDS011;63869;52.344;16.928;2022-12-16T19:16:35;94.45;;;30.48;;
75272;SDS011;63869;52.344;16.928;2022-12-16T19:19:19;87.82;;;28.50;;
75272;SDS011;63869;52.344;16.928;2022-12-16T19:22:03;95.82;;;29.15;;
75272;SDS011;63869;52.344;16.928;2022-12-16T19:27:31;87.18;;;28.00;;
75272;SDS011;63869;52.344;16.928;2022-12-16T19:32:59;78.72;;;26.52;;
75272;SDS011;63869;52.344;16.928;2022-12-16T19:38:27;88.88;;;27.30;;